createdAt,value
2023-02-03T00:02:06.655Z,8.40
2023-02-03T00:04:33.286Z,8.40
2023-02-03T00:06:59.953Z,8.40
2023-02-03T00:09:26.658Z,8.40
2023-02-03T00:11:54.094Z,8.30
2023-02-03T00:14:20.830Z,8.40
2023-02-03T00:16:47.508Z,8.40
2023-02-03T00:19:15.945Z,8.40
2023-02-03T00:21:43.985Z,8.40
2023-02-03T00:24:10.680Z,8.40
2023-02-03T00:26:41.584Z,8.40
2023-02-03T00:29:09.574Z,8.40
2023-02-03T00:31:36.434Z,8.40
2023-02-03T00:34:03.371Z,8.40
2023-02-03T00:36:29.997Z,8.40
2023-02-03T00:38:56.729Z,8.40
2023-02-03T00:41:28.036Z,8.40
2023-02-03T00:43:54.731Z,8.40
2023-02-03T00:46:21.374Z,8.40
2023-02-03T00:48:48.373Z,9.80
2023-02-03T00:51:14.980Z,8.40
2023-02-03T00:53:41.614Z,8.40
2023-02-03T00:56:12.557Z,8.40
2023-02-03T00:58:40.452Z,8.40
2023-02-03T01:01:07.454Z,8.40
2023-02-03T01:03:34.280Z,8.40
2023-02-03T01:06:14.694Z,8.40
2023-02-03T01:08:41.915Z,8.40
2023-02-03T01:11:18.444Z,8.40
2023-02-03T01:13:45.793Z,8.40
2023-02-03T01:16:14.697Z,8.40
2023-02-03T01:18:42.215Z,8.40
2023-02-03T01:21:17.914Z,8.40
2023-02-03T01:23:45.503Z,8.40
2023-02-03T01:26:15.220Z,8.50
2023-02-03T01:28:42.312Z,8.50
2023-02-03T01:31:17.631Z,8.50
2023-02-03T01:33:48.682Z,8.40
2023-02-03T01:36:16.890Z,8.40
2023-02-03T01:38:45.035Z,8.50
2023-02-03T01:41:18.411Z,8.50
2023-02-03T01:43:50.993Z,8.50
2023-02-03T01:46:36.112Z,8.50
2023-02-03T01:49:12.984Z,8.50
2023-02-03T01:51:42.012Z,8.50
2023-02-03T01:54:20.103Z,8.60
2023-02-03T01:56:53.689Z,8.50
2023-02-03T01:59:22.203Z,8.60
2023-02-03T02:01:51.437Z,8.60
2023-02-03T02:04:18.272Z,8.60
2023-02-03T02:06:47.919Z,8.60
2023-02-03T02:09:15.847Z,8.60
2023-02-03T02:11:42.497Z,8.60
2023-02-03T02:14:09.275Z,8.60
2023-02-03T02:16:54.868Z,7.20
2023-02-03T02:19:48.898Z,8.60
2023-02-03T02:22:36.851Z,8.60
2023-02-03T02:25:56.941Z,8.60
2023-02-03T02:29:00.534Z,8.60
2023-02-03T02:31:36.314Z,9.40
2023-02-03T02:34:23.242Z,8.60
2023-02-03T02:37:00.916Z,8.50
2023-02-03T02:39:53.675Z,8.50
2023-02-03T02:42:44.386Z,8.60
2023-02-03T02:45:39.489Z,6.70
2023-02-03T02:48:28.828Z,8.60
2023-02-03T02:50:58.254Z,8.50
2023-02-03T02:53:31.569Z,8.50
2023-02-03T02:56:00.852Z,8.50
2023-02-03T02:58:29.157Z,8.50
2023-02-03T03:00:56.157Z,8.60
2023-02-03T03:03:24.075Z,8.50
2023-02-03T03:05:55.088Z,8.50
2023-02-03T03:08:35.153Z,8.50
2023-02-03T03:11:02.646Z,8.50
2023-02-03T03:13:34.091Z,8.60
2023-02-03T03:16:04.030Z,8.60
2023-02-03T03:18:36.677Z,8.60
2023-02-03T03:21:06.536Z,8.60
2023-02-03T03:23:39.568Z,8.70
2023-02-03T03:26:43.243Z,8.70
2023-02-03T03:29:20.633Z,10.10
2023-02-03T03:31:48.265Z,8.70
2023-02-03T03:34:16.852Z,8.70
2023-02-03T03:36:55.289Z,8.70
2023-02-03T03:39:35.823Z,8.60
2023-02-03T03:42:12.886Z,8.60
2023-02-03T03:44:47.619Z,8.60
2023-02-03T03:47:24.818Z,8.60
2023-02-03T03:49:53.628Z,8.70
2023-02-03T03:52:26.563Z,8.70
2023-02-03T03:54:54.678Z,8.70
2023-02-03T03:57:35.898Z,8.70
2023-02-03T04:00:06.190Z,8.60
2023-02-03T04:02:40.689Z,8.60
2023-02-03T04:05:10.639Z,8.60
2023-02-03T04:07:43.062Z,8.60
2023-02-03T04:10:30.331Z,10.10
2023-02-03T04:12:57.472Z,8.70
2023-02-03T04:15:24.199Z,8.70
2023-02-03T04:17:50.946Z,8.60
2023-02-03T04:20:18.040Z,8.70
2023-02-03T04:22:46.797Z,8.60
2023-02-03T04:25:13.482Z,8.60
2023-02-03T04:27:40.220Z,8.70
2023-02-03T04:30:07.720Z,8.70
2023-02-03T04:32:35.496Z,8.60
2023-02-03T04:35:03.738Z,8.60
2023-02-03T04:37:30.631Z,8.70
2023-02-03T04:39:57.648Z,8.70
2023-02-03T04:42:24.715Z,8.60
2023-02-03T04:44:51.596Z,8.60
2023-02-03T04:47:19.156Z,8.60
2023-02-03T04:49:46.034Z,8.60
2023-02-03T04:52:13.604Z,8.60
2023-02-03T04:54:40.342Z,8.60
2023-02-03T04:57:07.143Z,9.10
2023-02-03T04:59:33.845Z,8.60
2023-02-03T05:02:03.966Z,8.60
2023-02-03T05:04:31.011Z,8.60
2023-02-03T05:06:57.759Z,8.60
2023-02-03T05:09:25.662Z,8.70
2023-02-03T05:11:52.552Z,8.80
2023-02-03T05:14:19.526Z,8.70
2023-02-03T05:16:46.647Z,8.70
2023-02-03T05:19:13.497Z,8.70
2023-02-03T05:21:40.201Z,8.70
2023-02-03T05:24:07.887Z,8.70
2023-02-03T05:26:35.843Z,8.70
2023-02-03T05:29:03.203Z,8.70
2023-02-03T05:31:29.893Z,8.60
2023-02-03T05:33:56.520Z,8.60
2023-02-03T05:36:23.143Z,8.70
2023-02-03T05:38:49.829Z,8.70
2023-02-03T05:41:35.100Z,8.70
2023-02-03T05:44:01.705Z,8.70
2023-02-03T05:46:28.343Z,8.70
2023-02-03T05:48:54.971Z,8.70
2023-02-03T05:51:21.635Z,8.70
2023-02-03T05:53:48.219Z,8.70
2023-02-03T05:56:14.823Z,8.70
2023-02-03T05:58:41.432Z,8.70
2023-02-03T06:01:08.028Z,8.70
2023-02-03T06:03:34.823Z,8.70
2023-02-03T06:06:01.617Z,8.70
2023-02-03T06:08:28.594Z,9.30
2023-02-03T06:11:00.306Z,8.70
2023-02-03T06:13:27.871Z,8.70
2023-02-03T06:15:54.689Z,8.80
2023-02-03T06:18:21.501Z,8.80
2023-02-03T06:20:48.110Z,8.70
2023-02-03T06:23:17.042Z,8.80
2023-02-03T06:25:43.822Z,8.80
2023-02-03T06:28:10.733Z,8.90
2023-02-03T06:30:37.547Z,8.80
2023-02-03T06:33:04.320Z,9.90
2023-02-03T06:35:31.119Z,10.00
2023-02-03T06:37:57.781Z,8.80
2023-02-03T06:40:24.507Z,8.80
2023-02-03T06:42:51.440Z,8.70
2023-02-03T06:45:18.277Z,8.70
2023-02-03T06:47:45.858Z,8.70
2023-02-03T06:50:14.920Z,8.70
2023-02-03T06:52:41.660Z,8.60
2023-02-03T06:55:08.798Z,8.60
2023-02-03T06:57:35.486Z,8.60
2023-02-03T07:00:02.452Z,8.50
2023-02-03T07:02:29.135Z,8.60
2023-02-03T07:04:55.763Z,8.50
2023-02-03T07:07:22.416Z,8.50
2023-02-03T07:09:49.036Z,8.50
2023-02-03T07:12:15.756Z,8.50
2023-02-03T07:14:42.372Z,8.50
2023-02-03T07:17:09.384Z,8.50
2023-02-03T07:19:36.148Z,8.50
2023-02-03T07:22:02.776Z,8.50
2023-02-03T07:24:29.428Z,8.50
2023-02-03T07:26:56.095Z,8.50
2023-02-03T07:29:22.732Z,8.50
2023-02-03T07:31:49.473Z,8.50
2023-02-03T07:34:16.242Z,7.10
2023-02-03T07:36:42.827Z,8.40
2023-02-03T07:39:09.465Z,8.40
2023-02-03T07:41:36.272Z,8.40
2023-02-03T07:44:03.041Z,8.40
2023-02-03T07:46:29.859Z,8.40
2023-02-03T07:48:56.577Z,8.30
2023-02-03T07:51:23.230Z,8.30
2023-02-03T07:53:49.832Z,8.30
2023-02-03T07:56:16.513Z,8.30
2023-02-03T07:58:43.109Z,8.30
2023-02-03T08:01:15.778Z,8.40
2023-02-03T08:03:43.219Z,8.30
2023-02-03T08:06:10.625Z,8.40
2023-02-03T08:08:37.242Z,8.40
2023-02-03T08:11:03.988Z,8.40
2023-02-03T08:13:30.664Z,8.40
2023-02-03T08:15:57.411Z,8.30
2023-02-03T08:18:24.093Z,8.30
2023-02-03T08:20:51.058Z,8.40
2023-02-03T08:23:17.903Z,8.30
2023-02-03T08:25:44.567Z,8.40
2023-02-03T08:28:11.240Z,8.40
2023-02-03T08:30:38.509Z,8.40
2023-02-03T08:33:05.187Z,8.40
2023-02-03T08:35:32.253Z,8.40
2023-02-03T08:37:58.868Z,8.40
2023-02-03T08:40:26.033Z,8.40
2023-02-03T08:42:52.959Z,8.40
2023-02-03T08:45:19.798Z,8.40
2023-02-03T08:47:46.597Z,8.40
2023-02-03T08:50:13.577Z,8.40
2023-02-03T08:52:40.494Z,8.50
2023-02-03T08:55:07.487Z,8.50
2023-02-03T08:57:36.004Z,9.30
2023-02-03T09:00:04.451Z,8.50
2023-02-03T09:02:31.198Z,8.50
2023-02-03T09:04:58.163Z,8.40
2023-02-03T09:07:25.120Z,8.40
2023-02-03T09:09:51.784Z,8.50
2023-02-03T09:12:18.489Z,9.60
2023-02-03T09:14:45.440Z,8.50
2023-02-03T09:17:12.344Z,8.50
2023-02-03T09:19:38.971Z,8.50
2023-02-03T09:22:05.859Z,8.50
2023-02-03T09:24:32.760Z,8.50
2023-02-03T09:27:01.341Z,8.50
2023-02-03T09:29:28.365Z,8.50
2023-02-03T09:31:55.116Z,8.50
2023-02-03T09:34:22.486Z,8.60
2023-02-03T09:36:49.605Z,8.60
2023-02-03T09:39:16.367Z,8.60
2023-02-03T09:42:25.673Z,8.60
2023-02-03T09:45:10.481Z,8.20
2023-02-03T09:47:41.465Z,8.70
2023-02-03T09:50:19.150Z,8.70
2023-02-03T09:52:46.173Z,8.70
2023-02-03T09:55:32.961Z,8.70
2023-02-03T09:58:18.206Z,8.70
2023-02-03T10:00:52.624Z,8.70
2023-02-03T10:03:36.311Z,8.70
2023-02-03T10:06:09.962Z,8.70
2023-02-03T10:09:02.177Z,8.80
2023-02-03T10:11:28.730Z,8.70
2023-02-03T10:14:10.399Z,8.90
2023-02-03T10:16:48.799Z,8.80
2023-02-03T10:19:25.630Z,9.00
2023-02-03T10:22:00.382Z,8.80
2023-02-03T10:24:46.573Z,8.80
2023-02-03T10:27:22.340Z,8.80
2023-02-03T10:29:59.206Z,8.80
2023-02-03T10:32:27.853Z,8.80
2023-02-03T10:34:55.577Z,8.80
2023-02-03T10:37:29.307Z,8.90
2023-02-03T10:39:58.627Z,8.90
2023-02-03T10:42:25.804Z,8.90
2023-02-03T10:44:57.869Z,8.90
2023-02-03T10:47:39.776Z,8.90
2023-02-03T10:50:21.837Z,8.90
2023-02-03T10:52:48.774Z,8.10
2023-02-03T10:55:22.738Z,8.90
2023-02-03T10:57:49.885Z,8.90
2023-02-03T11:00:23.235Z,8.90
2023-02-03T11:03:26.438Z,8.90
2023-02-03T11:06:12.132Z,8.90
2023-02-03T11:08:42.974Z,8.90
2023-02-03T11:11:35.186Z,8.90
2023-02-03T11:14:04.921Z,8.90
2023-02-03T11:16:34.201Z,8.90
2023-02-03T11:19:07.211Z,8.80
2023-02-03T11:21:42.516Z,8.90
2023-02-03T11:24:28.439Z,8.90
2023-02-03T11:27:00.268Z,8.90
2023-02-03T11:29:30.583Z,10.50
2023-02-03T11:32:00.088Z,9.00
2023-02-03T11:34:35.243Z,9.00
2023-02-03T11:37:40.514Z,9.00
2023-02-03T11:40:07.108Z,9.00
2023-02-03T11:42:35.784Z,9.00
2023-02-03T11:45:28.644Z,9.00
2023-02-03T11:48:10.309Z,9.00
2023-02-03T11:50:47.418Z,9.00
2023-02-03T11:53:47.810Z,8.90
2023-02-03T11:56:56.837Z,8.90
2023-02-03T11:59:36.631Z,8.90
2023-02-03T12:02:30.700Z,8.90
2023-02-03T12:04:59.172Z,8.90
2023-02-03T12:07:34.859Z,8.90
2023-02-03T12:10:24.250Z,9.00
2023-02-03T12:13:00.092Z,9.00
2023-02-03T12:16:01.900Z,9.00
2023-02-03T12:18:56.169Z,8.90
2023-02-03T12:21:41.915Z,8.80
2023-02-03T12:24:18.745Z,8.80
2023-02-03T12:27:01.259Z,8.80
2023-02-03T12:29:38.759Z,8.70
2023-02-03T12:32:17.582Z,8.70
2023-02-03T12:35:09.156Z,8.80
2023-02-03T12:37:46.533Z,8.70
2023-02-03T12:40:21.969Z,8.80
2023-02-03T12:42:56.623Z,8.80
2023-02-03T12:45:29.747Z,8.80
2023-02-03T12:48:06.393Z,8.80
2023-02-03T12:50:58.714Z,8.80
2023-02-03T12:53:40.590Z,8.80
2023-02-03T12:56:12.168Z,8.90
2023-02-03T12:58:51.575Z,8.90
2023-02-03T13:01:26.167Z,8.90
2023-02-03T13:04:08.035Z,8.90
2023-02-03T13:06:54.801Z,8.90
2023-02-03T13:09:48.204Z,8.90
2023-02-03T13:12:31.452Z,8.90
2023-02-03T13:15:09.722Z,9.00
2023-02-03T13:18:05.194Z,9.00
2023-02-03T13:20:35.876Z,9.00
2023-02-03T13:23:11.048Z,9.00
2023-02-03T13:26:12.682Z,9.10
2023-02-03T13:28:48.019Z,9.00
2023-02-03T13:31:38.320Z,9.00
2023-02-03T13:34:23.128Z,9.00
2023-02-03T13:36:58.206Z,9.00
2023-02-03T13:39:46.463Z,9.00
2023-02-03T13:42:16.241Z,9.00
2023-02-03T13:44:46.834Z,9.00
2023-02-03T13:47:30.166Z,9.20
2023-02-03T13:50:16.809Z,9.00
2023-02-03T13:52:57.356Z,9.00
2023-02-03T13:55:34.029Z,9.00
2023-02-03T13:58:01.384Z,9.00
2023-02-03T14:00:46.041Z,9.10
2023-02-03T14:03:18.070Z,9.00
2023-02-03T14:05:49.596Z,9.00
2023-02-03T14:08:25.434Z,9.00
2023-02-03T14:11:29.540Z,9.00
2023-02-03T14:14:08.240Z,9.00
2023-02-03T14:16:39.971Z,8.90
2023-02-03T14:24:46.450Z,8.90
2023-02-03T14:27:22.712Z,8.90
2023-02-03T14:30:11.553Z,8.80
2023-02-03T14:32:50.739Z,8.80
2023-02-03T14:35:30.682Z,8.80
2023-02-03T14:38:01.810Z,8.80
2023-02-03T14:40:38.680Z,8.80
2023-02-03T14:46:19.648Z,8.80
2023-02-03T14:49:18.178Z,8.80
2023-02-03T14:52:08.854Z,8.80
2023-02-03T14:55:08.692Z,8.80
2023-02-03T14:57:49.628Z,8.80
2023-02-03T15:00:19.203Z,8.80
2023-02-03T15:03:10.417Z,8.80
2023-02-03T15:05:40.161Z,8.80
2023-02-03T15:08:44.012Z,8.80
2023-02-03T15:11:31.237Z,8.80
2023-02-03T15:14:23.049Z,8.80
2023-02-03T15:17:00.817Z,8.80
2023-02-03T15:19:33.340Z,8.90
2023-02-03T15:24:36.583Z,8.80
2023-02-03T15:29:32.482Z,8.80
2023-02-03T15:32:19.057Z,8.90
2023-02-03T15:34:49.124Z,8.80
2023-02-03T15:37:32.748Z,8.70
2023-02-03T15:40:41.096Z,8.70
2023-02-03T15:43:24.323Z,8.70
2023-02-03T15:46:07.308Z,8.60
2023-02-03T15:48:58.494Z,8.60
2023-02-03T15:51:34.158Z,8.60
2023-02-03T15:54:11.708Z,8.60
2023-02-03T15:56:44.192Z,8.60
2023-02-03T15:59:24.861Z,8.50
2023-02-03T16:01:52.943Z,8.50
2023-02-03T16:04:21.173Z,8.50
2023-02-03T16:06:53.847Z,8.50
2023-02-03T16:09:40.911Z,8.50
2023-02-03T16:12:28.267Z,8.40
2023-02-03T16:14:56.537Z,7.80
2023-02-03T16:17:31.175Z,8.40
2023-02-03T16:20:12.917Z,8.40
2023-02-03T16:22:41.318Z,8.30
2023-02-03T16:25:18.611Z,8.30
2023-02-03T16:28:14.301Z,8.40
2023-02-03T16:31:15.252Z,8.30
2023-02-03T16:34:05.013Z,8.30
2023-02-03T16:36:50.666Z,8.30
2023-02-03T16:42:33.655Z,8.30
2023-02-03T16:48:05.432Z,8.30
2023-02-03T16:50:53.546Z,8.30
2023-02-03T16:53:23.257Z,8.30
2023-02-03T16:55:51.334Z,8.30
2023-02-03T17:00:47.377Z,8.20
2023-02-03T17:03:20.036Z,8.20
2023-02-03T17:05:47.698Z,8.30
2023-02-03T17:08:15.548Z,8.20
2023-02-03T17:10:43.809Z,8.20
2023-02-03T17:15:50.448Z,8.20
2023-02-03T17:18:17.107Z,8.20
2023-02-03T17:20:44.633Z,8.10
2023-02-03T17:23:12.598Z,5.80
2023-02-03T17:25:40.737Z,8.20
2023-02-03T17:28:09.064Z,8.20
2023-02-03T17:33:11.826Z,8.20
2023-02-03T17:35:43.606Z,8.20
2023-02-03T17:38:12.382Z,8.10
2023-02-03T17:54:27.391Z,8.10
2023-02-03T18:04:15.251Z,8.10
2023-02-03T18:09:10.145Z,8.00
2023-02-03T18:11:38.013Z,8.00
2023-02-03T18:14:05.790Z,8.10
2023-02-03T18:16:35.903Z,8.10
2023-02-03T18:19:06.186Z,9.40
2023-02-03T18:26:34.326Z,7.90
2023-02-03T18:43:45.073Z,7.80
2023-02-03T18:46:21.114Z,7.80
2023-02-03T18:48:48.341Z,7.80
2023-02-03T18:51:17.056Z,7.60
2023-02-03T18:56:16.435Z,7.70
2023-02-03T18:58:43.544Z,7.70
2023-02-03T19:01:10.536Z,7.80
2023-02-03T19:06:09.516Z,7.70
2023-02-03T19:23:18.747Z,7.60
2023-02-03T19:25:50.574Z,7.60
2023-02-03T19:31:07.968Z,7.60
2023-02-03T19:36:03.595Z,7.60
2023-02-03T19:50:49.760Z,7.60
2023-02-03T19:53:18.027Z,7.60
2023-02-03T19:55:46.259Z,7.60
2023-02-03T19:58:13.898Z,7.40
2023-02-03T20:05:36.210Z,7.60
2023-02-03T20:15:26.845Z,7.50
2023-02-03T20:17:53.711Z,7.50
2023-02-03T20:32:36.868Z,7.60
2023-02-03T20:35:04.792Z,7.60
2023-02-03T20:47:22.034Z,7.60
2023-02-03T20:49:49.630Z,7.60
2023-02-03T20:52:19.568Z,7.60
2023-02-03T20:54:46.268Z,7.50
2023-02-03T20:57:17.980Z,7.40
2023-02-03T20:59:46.035Z,7.40
2023-02-03T21:02:51.179Z,7.50
2023-02-03T21:05:27.329Z,7.50
2023-02-03T21:10:23.441Z,7.40
2023-02-03T21:15:19.448Z,7.50
2023-02-03T21:20:24.243Z,7.50
2023-02-03T21:25:29.691Z,7.60
2023-02-03T21:27:58.275Z,7.60
2023-02-03T21:30:28.620Z,7.60
2023-02-03T21:32:55.708Z,7.60
2023-02-03T21:35:37.940Z,7.60
2023-02-03T21:38:32.306Z,7.60
2023-02-03T21:41:01.175Z,7.50
2023-02-03T21:43:29.455Z,7.50
2023-02-03T21:45:56.426Z,7.60
2023-02-03T21:48:32.478Z,7.60
2023-02-03T21:51:04.589Z,7.60
2023-02-03T21:53:35.946Z,7.60
2023-02-03T21:56:23.020Z,7.60
2023-02-03T21:58:51.075Z,7.50
2023-02-03T22:01:19.265Z,7.50
2023-02-03T22:03:49.705Z,7.50
2023-02-03T22:06:23.821Z,7.50
2023-02-03T22:08:52.751Z,7.40
2023-02-03T22:11:21.275Z,7.40
2023-02-03T22:13:48.397Z,7.30
2023-02-03T22:18:48.443Z,7.20
2023-02-03T22:21:16.216Z,7.30
2023-02-03T22:23:43.434Z,7.30
2023-02-03T22:26:11.376Z,7.30
2023-02-03T22:28:38.885Z,7.30
2023-02-03T22:31:07.405Z,7.30
2023-02-03T22:33:35.210Z,7.30
2023-02-03T22:38:30.454Z,7.20
2023-02-03T22:43:25.148Z,6.30
2023-02-03T23:00:35.644Z,7.10
2023-02-03T23:03:02.471Z,7.10
2023-02-03T23:07:56.374Z,7.10
2023-02-03T23:10:25.541Z,7.00
2023-02-03T23:20:15.665Z,7.00
2023-02-03T23:22:43.519Z,7.20
2023-02-03T23:25:11.763Z,7.00
2023-02-03T23:30:06.740Z,3.60
2023-02-03T23:35:19.969Z,7.00
2023-02-03T23:40:14.180Z,3.90
2023-02-03T23:45:11.583Z,7.10
2023-02-03T23:47:42.316Z,7.00
2023-02-03T23:50:10.779Z,7.00
2023-02-03T23:55:18.271Z,7.00
2023-02-03T23:57:45.634Z,7.00
